createdAt,value
2018-07-15T00:00:24.619Z,18.40
2018-07-15T00:02:52.776Z,18.40
2018-07-15T00:05:20.907Z,18.40
2018-07-15T00:07:49.068Z,18.40
2018-07-15T00:10:17.197Z,18.40
2018-07-15T00:12:45.356Z,18.30
2018-07-15T00:15:13.528Z,18.30
2018-07-15T00:17:41.652Z,18.30
2018-07-15T00:20:09.798Z,18.30
2018-07-15T00:22:37.947Z,18.20
2018-07-15T00:25:06.066Z,18.20
2018-07-15T00:27:34.209Z,18.10
2018-07-15T00:30:02.388Z,18.10
2018-07-15T00:32:30.591Z,18.00
2018-07-15T00:34:58.722Z,18.00
2018-07-15T00:37:26.839Z,18.00
2018-07-15T00:39:54.942Z,17.90
2018-07-15T00:42:23.136Z,17.90
2018-07-15T00:44:51.279Z,17.80
2018-07-15T00:47:19.414Z,17.70
2018-07-15T00:49:47.540Z,17.70
2018-07-15T00:52:15.644Z,17.60
2018-07-15T00:54:43.774Z,17.60
2018-07-15T00:57:11.973Z,17.50
2018-07-15T00:59:40.088Z,17.50
2018-07-15T01:02:08.667Z,17.50
2018-07-15T01:04:36.803Z,17.40
2018-07-15T01:07:05.350Z,17.30
2018-07-15T01:09:33.538Z,17.20
2018-07-15T01:12:01.699Z,17.20
2018-07-15T01:14:29.811Z,17.20
2018-07-15T01:16:57.979Z,17.20
2018-07-15T01:19:26.126Z,17.10
2018-07-15T01:21:54.342Z,17.10
2018-07-15T01:24:22.478Z,17.10
2018-07-15T01:26:50.632Z,17.10
2018-07-15T01:29:18.755Z,17.10
2018-07-15T01:31:46.870Z,17.10
2018-07-15T01:34:14.997Z,17.10
2018-07-15T01:36:43.131Z,17.10
2018-07-15T01:39:11.273Z,17.00
2018-07-15T01:41:39.379Z,17.00
2018-07-15T01:44:07.549Z,17.10
2018-07-15T01:46:35.719Z,17.10
2018-07-15T01:49:03.868Z,17.10
2018-07-15T01:51:32.028Z,17.10
2018-07-15T01:54:00.162Z,17.10
2018-07-15T01:56:28.301Z,17.20
2018-07-15T01:58:56.420Z,17.10
2018-07-15T02:01:24.557Z,17.10
2018-07-15T02:03:52.718Z,17.10
2018-07-15T02:06:20.831Z,17.00
2018-07-15T02:08:48.974Z,17.00
2018-07-15T02:11:17.172Z,17.00
2018-07-15T02:13:45.343Z,17.00
2018-07-15T02:16:13.486Z,16.90
2018-07-15T02:18:41.675Z,16.90
2018-07-15T02:21:09.795Z,16.80
2018-07-15T02:23:37.951Z,16.70
2018-07-15T02:26:06.079Z,16.60
2018-07-15T02:28:34.229Z,16.50
2018-07-15T02:31:02.348Z,16.50
2018-07-15T02:33:30.506Z,16.50
2018-07-15T02:35:58.662Z,16.50
2018-07-15T02:38:26.779Z,16.40
2018-07-15T02:40:54.911Z,16.40
2018-07-15T02:43:23.066Z,16.40
2018-07-15T02:45:51.211Z,16.30
2018-07-15T02:48:19.354Z,16.30
2018-07-15T02:50:47.479Z,16.30
2018-07-15T02:53:15.639Z,16.20
2018-07-15T02:55:43.786Z,16.10
2018-07-15T02:58:11.983Z,16.10
2018-07-15T03:00:40.148Z,16.00
2018-07-15T03:03:08.295Z,16.00
2018-07-15T03:05:36.448Z,15.90
2018-07-15T03:08:04.609Z,15.90
2018-07-15T03:10:32.736Z,15.90
2018-07-15T03:13:00.882Z,15.90
2018-07-15T03:15:29.032Z,15.90
2018-07-15T03:17:57.156Z,15.80
2018-07-15T03:20:25.284Z,15.80
2018-07-15T03:22:53.879Z,15.80
2018-07-15T03:25:22.024Z,15.80
2018-07-15T03:27:50.146Z,15.80
2018-07-15T03:30:18.295Z,15.80
2018-07-15T03:32:46.472Z,15.80
2018-07-15T03:35:14.714Z,15.70
2018-07-15T03:37:42.892Z,15.70
2018-07-15T03:40:11.011Z,15.70
2018-07-15T03:42:39.140Z,15.70
2018-07-15T03:45:07.268Z,15.80
2018-07-15T03:47:35.376Z,15.80
2018-07-15T03:50:03.539Z,15.80
2018-07-15T03:52:31.734Z,15.80
2018-07-15T03:54:59.885Z,15.80
2018-07-15T03:57:28.027Z,15.80
2018-07-15T03:59:56.142Z,15.90
2018-07-15T04:02:24.264Z,15.90
2018-07-15T04:04:52.388Z,15.90
2018-07-15T04:07:20.604Z,15.90
2018-07-15T04:09:48.730Z,15.80
2018-07-15T04:12:16.897Z,15.90
2018-07-15T04:14:45.008Z,15.90
2018-07-15T04:17:13.170Z,15.90
2018-07-15T04:19:41.304Z,15.90
2018-07-15T04:22:09.456Z,15.90
2018-07-15T04:24:37.575Z,16.00
2018-07-15T04:27:05.718Z,16.00
2018-07-15T04:29:34.008Z,15.90
2018-07-15T04:32:02.235Z,15.90
2018-07-15T04:34:30.369Z,15.90
2018-07-15T04:36:58.541Z,15.80
2018-07-15T04:39:26.680Z,15.70
2018-07-15T04:41:54.830Z,15.70
2018-07-15T04:44:22.972Z,15.70
2018-07-15T04:46:51.666Z,15.80
2018-07-15T04:49:19.801Z,15.80
2018-07-15T04:51:47.967Z,15.80
2018-07-15T04:54:16.083Z,15.90
2018-07-15T04:56:44.224Z,16.00
2018-07-15T04:59:12.336Z,16.20
2018-07-15T05:01:43.233Z,16.50
2018-07-15T05:04:12.896Z,16.80
2018-07-15T05:06:41.028Z,17.20
2018-07-15T05:09:09.151Z,17.70
2018-07-15T05:11:38.128Z,18.10
2018-07-15T05:14:06.700Z,18.40
2018-07-15T05:16:34.842Z,18.70
2018-07-15T05:19:03.118Z,19.10
2018-07-15T05:21:31.281Z,19.40
2018-07-15T05:23:59.429Z,19.60
2018-07-15T05:26:27.605Z,19.90
2018-07-15T05:28:55.766Z,20.00
2018-07-15T05:31:23.928Z,20.20
2018-07-15T05:33:52.069Z,20.60
2018-07-15T05:36:20.251Z,20.80
2018-07-15T05:38:48.386Z,20.80
2018-07-15T05:41:16.527Z,21.10
2018-07-15T05:43:44.637Z,21.10
2018-07-15T05:46:12.768Z,21.20
2018-07-15T05:48:40.914Z,21.50
2018-07-15T05:51:09.210Z,21.70
2018-07-15T05:53:37.328Z,21.80
2018-07-15T05:56:05.488Z,22.30
2018-07-15T05:58:33.673Z,22.70
2018-07-15T06:01:01.815Z,22.50
2018-07-15T06:03:30.012Z,22.50
2018-07-15T06:05:58.162Z,22.10
2018-07-15T06:08:26.314Z,21.80
2018-07-15T06:10:54.513Z,21.50
2018-07-15T06:13:22.809Z,21.20
2018-07-15T06:15:50.943Z,20.80
2018-07-15T06:18:19.098Z,20.70
2018-07-15T06:20:47.239Z,21.00
2018-07-15T06:23:15.376Z,21.20
2018-07-15T06:25:43.618Z,21.50
2018-07-15T06:28:11.843Z,22.00
2018-07-15T06:30:40.078Z,22.50
2018-07-15T06:33:08.241Z,22.60
2018-07-15T06:35:36.392Z,22.80
2018-07-15T06:38:04.507Z,22.90
2018-07-15T06:40:32.619Z,23.30
2018-07-15T06:43:00.746Z,23.40
2018-07-15T06:45:28.906Z,23.30
2018-07-15T06:47:57.048Z,23.70
2018-07-15T06:50:25.187Z,23.60
2018-07-15T06:52:53.436Z,23.70
2018-07-15T06:55:21.573Z,23.70
2018-07-15T06:57:49.740Z,23.70
2018-07-15T07:00:18.052Z,24.20
2018-07-15T07:02:46.209Z,24.10
2018-07-15T07:05:14.355Z,24.50
2018-07-15T07:07:42.627Z,24.60
2018-07-15T07:10:10.848Z,24.50
2018-07-15T07:12:39.046Z,24.70
2018-07-15T07:15:07.223Z,24.70
2018-07-15T07:17:35.400Z,24.90
2018-07-15T07:20:03.619Z,25.00
2018-07-15T07:22:31.767Z,25.00
2018-07-15T07:25:00.720Z,25.30
2018-07-15T07:27:28.863Z,25.50
2018-07-15T07:29:57.002Z,25.70
2018-07-15T07:32:25.152Z,25.80
2018-07-15T07:34:53.434Z,25.90
2018-07-15T07:37:21.628Z,26.20
2018-07-15T07:39:49.783Z,26.40
2018-07-15T07:42:17.971Z,26.20
2018-07-15T07:44:46.103Z,26.30
2018-07-15T07:47:14.246Z,26.10
2018-07-15T07:49:42.435Z,26.10
2018-07-15T07:52:11.278Z,26.40
2018-07-15T07:54:39.424Z,26.90
2018-07-15T07:57:08.104Z,26.50
2018-07-15T07:59:36.215Z,26.10
2018-07-15T08:02:04.446Z,26.10
2018-07-15T08:07:00.473Z,26.70
2018-07-15T08:09:28.628Z,26.80
2018-07-15T08:11:56.776Z,27.00
2018-07-15T08:14:24.916Z,26.90
2018-07-15T08:16:53.662Z,27.10
2018-07-15T08:19:21.787Z,27.10
2018-07-15T08:21:49.977Z,27.00
2018-07-15T08:24:18.114Z,26.90
2018-07-15T08:26:46.588Z,27.00
2018-07-15T08:31:44.147Z,27.00
2018-07-15T08:34:12.272Z,27.10
2018-07-15T08:36:40.378Z,27.30
2018-07-15T08:39:08.531Z,27.40
2018-07-15T08:41:36.660Z,27.40
2018-07-15T08:44:04.801Z,27.30
2018-07-15T08:46:32.928Z,27.60
2018-07-15T08:49:01.091Z,27.10
2018-07-15T08:51:29.274Z,27.30
2018-07-15T08:53:57.441Z,27.10
2018-07-15T08:56:25.592Z,27.20
2018-07-15T08:58:53.763Z,27.30
2018-07-15T09:01:21.968Z,26.90
2018-07-15T09:03:50.140Z,27.10
2018-07-15T09:06:18.266Z,27.20
2018-07-15T09:08:46.414Z,27.20
2018-07-15T09:11:14.551Z,27.70
2018-07-15T09:13:42.703Z,27.70
2018-07-15T09:16:10.923Z,27.60
2018-07-15T09:18:39.023Z,27.60
2018-07-15T09:21:07.174Z,27.80
2018-07-15T09:23:35.341Z,28.10
2018-07-15T09:26:03.496Z,28.20
2018-07-15T09:28:31.638Z,28.30
2018-07-15T09:30:59.815Z,28.50
2018-07-15T09:35:55.883Z,28.70
2018-07-15T09:38:24.066Z,28.80
2018-07-15T09:40:52.261Z,28.80
2018-07-15T09:43:20.419Z,29.00
2018-07-15T09:45:48.623Z,29.00
2018-07-15T09:48:17.618Z,28.50
2018-07-15T09:50:45.772Z,28.60
2018-07-15T09:53:13.901Z,28.90
2018-07-15T09:55:42.040Z,29.10
2018-07-15T09:58:10.233Z,29.10
2018-07-15T10:00:43.631Z,29.00
2018-07-15T10:03:11.993Z,29.00
2018-07-15T10:05:40.159Z,29.70
2018-07-15T10:08:08.347Z,29.60
2018-07-15T10:10:36.482Z,29.70
2018-07-15T10:13:04.903Z,29.70
2018-07-15T10:15:33.051Z,29.40
2018-07-15T10:18:01.203Z,29.60
2018-07-15T10:20:29.426Z,29.70
2018-07-15T10:22:57.570Z,29.80
2018-07-15T10:25:25.700Z,29.10
2018-07-15T10:27:53.870Z,28.90
2018-07-15T10:30:21.970Z,28.70
2018-07-15T10:32:50.118Z,28.60
2018-07-15T10:35:18.259Z,28.70
2018-07-15T10:37:46.436Z,29.00
2018-07-15T10:40:14.729Z,29.20
2018-07-15T10:42:42.853Z,29.10
2018-07-15T10:45:11.201Z,29.00
2018-07-15T10:47:39.383Z,28.90
2018-07-15T10:50:07.545Z,29.00
2018-07-15T10:52:35.697Z,28.90
2018-07-15T10:55:04.252Z,28.70
2018-07-15T10:57:32.471Z,28.60
2018-07-15T11:00:00.635Z,28.60
2018-07-15T11:02:28.783Z,28.60
2018-07-15T11:04:56.944Z,28.70
2018-07-15T11:07:25.120Z,28.90
2018-07-15T11:09:53.318Z,28.70
2018-07-15T11:12:21.524Z,28.30
2018-07-15T11:14:49.731Z,28.20
2018-07-15T11:19:45.808Z,28.20
2018-07-15T11:22:13.990Z,28.20
2018-07-15T11:24:42.102Z,28.20
2018-07-15T11:27:10.228Z,28.30
2018-07-15T11:29:38.384Z,28.50
2018-07-15T11:32:06.563Z,28.70
2018-07-15T11:34:34.747Z,28.80
2018-07-15T11:37:02.895Z,28.80
2018-07-15T11:39:31.047Z,28.70
2018-07-15T11:41:59.206Z,28.70
2018-07-15T11:44:27.395Z,28.70
2018-07-15T11:46:55.534Z,28.70
2018-07-15T11:49:23.704Z,28.60
2018-07-15T11:51:51.856Z,28.70
2018-07-15T11:54:20.054Z,28.80
2018-07-15T11:56:48.333Z,28.90
2018-07-15T11:59:16.442Z,28.60
2018-07-15T12:01:44.674Z,28.70
2018-07-15T12:04:12.768Z,28.80
2018-07-15T12:06:40.900Z,28.80
2018-07-15T12:09:09.060Z,28.90
2018-07-15T12:11:37.183Z,28.90
2018-07-15T12:14:05.342Z,28.80
2018-07-15T12:16:33.507Z,29.00
2018-07-15T12:19:01.650Z,28.90
2018-07-15T12:21:29.792Z,28.60
2018-07-15T12:23:57.927Z,28.60
2018-07-15T12:26:26.050Z,28.60
2018-07-15T12:28:54.191Z,28.70
2018-07-15T12:31:22.319Z,28.70
2018-07-15T12:33:51.503Z,28.60
2018-07-15T12:36:19.634Z,28.60
2018-07-15T12:38:47.795Z,28.70
2018-07-15T12:41:15.918Z,28.80
2018-07-15T12:43:44.442Z,29.10
2018-07-15T12:46:12.578Z,29.10
2018-07-15T12:48:40.768Z,29.10
2018-07-15T12:51:08.900Z,29.10
2018-07-15T12:53:37.015Z,29.10
2018-07-15T12:56:05.169Z,29.20
2018-07-15T12:58:33.362Z,29.50
2018-07-15T13:01:01.520Z,29.60
2018-07-15T13:03:29.694Z,29.80
2018-07-15T13:05:57.831Z,30.00
2018-07-15T13:08:25.978Z,29.60
2018-07-15T13:10:54.109Z,29.50
2018-07-15T13:13:22.259Z,29.50
2018-07-15T13:15:51.344Z,29.30
2018-07-15T13:18:19.565Z,29.20
2018-07-15T13:20:47.717Z,29.10
2018-07-15T13:23:15.892Z,29.10
2018-07-15T13:25:44.065Z,29.00
2018-07-15T13:28:12.378Z,29.10
2018-07-15T13:30:40.617Z,28.90
2018-07-15T13:33:08.743Z,28.90
2018-07-15T13:35:36.889Z,29.00
2018-07-15T13:38:05.040Z,28.90
2018-07-15T13:40:33.239Z,28.70
2018-07-15T13:43:01.405Z,28.00
2018-07-15T13:45:29.536Z,27.10
2018-07-15T13:47:57.711Z,26.80
2018-07-15T13:50:25.855Z,26.50
2018-07-15T13:52:54.026Z,26.30
2018-07-15T13:55:22.231Z,26.30
2018-07-15T13:57:50.967Z,26.00
2018-07-15T14:00:19.088Z,25.50
2018-07-15T14:02:47.204Z,25.10
2018-07-15T14:05:15.354Z,24.70
2018-07-15T14:07:43.578Z,24.50
2018-07-15T14:10:11.732Z,23.60
2018-07-15T14:12:39.915Z,23.00
2018-07-15T14:15:08.162Z,22.60
2018-07-15T14:17:36.629Z,21.90
2018-07-15T14:20:04.817Z,20.70
2018-07-15T14:22:32.939Z,19.80
2018-07-15T14:25:01.160Z,19.00
2018-07-15T14:27:29.287Z,18.30
2018-07-15T14:29:57.418Z,17.70
2018-07-15T14:32:25.569Z,17.10
2018-07-15T14:34:53.715Z,16.60
2018-07-15T14:37:21.854Z,16.00
2018-07-15T14:39:49.992Z,15.10
2018-07-15T14:42:18.136Z,14.40
2018-07-15T14:44:46.271Z,14.30
2018-07-15T14:47:14.410Z,14.30
2018-07-15T14:49:42.595Z,14.40
2018-07-15T14:52:10.739Z,14.50
2018-07-15T14:54:38.901Z,14.80
2018-07-15T14:57:07.064Z,14.90
2018-07-15T14:59:35.229Z,14.90
2018-07-15T15:02:04.651Z,14.90
2018-07-15T15:04:32.768Z,14.90
2018-07-15T15:07:00.936Z,14.90
2018-07-15T15:09:29.088Z,14.90
2018-07-15T15:11:57.265Z,15.00
2018-07-15T15:14:25.429Z,15.10
2018-07-15T15:16:53.736Z,15.20
2018-07-15T15:19:22.263Z,15.20
2018-07-15T15:24:18.415Z,15.20
2018-07-15T15:26:46.624Z,15.30
2018-07-15T15:29:15.647Z,15.30
2018-07-15T15:31:43.864Z,15.40
2018-07-15T15:34:12.131Z,15.40
2018-07-15T15:36:40.448Z,15.50
2018-07-15T15:39:08.624Z,15.50
2018-07-15T15:41:36.800Z,15.60
2018-07-15T15:44:05.008Z,15.60
2018-07-15T15:46:33.269Z,15.70
2018-07-15T15:49:01.440Z,15.80
2018-07-15T15:51:29.616Z,15.80
2018-07-15T15:53:57.811Z,16.00
2018-07-15T15:56:25.987Z,16.00
2018-07-15T15:58:54.165Z,16.10
2018-07-15T16:01:22.317Z,16.20
2018-07-15T16:03:50.443Z,16.30
2018-07-15T16:06:18.603Z,16.40
2018-07-15T16:08:46.775Z,16.40
2018-07-15T16:11:14.937Z,16.40
2018-07-15T16:13:43.092Z,16.40
2018-07-15T16:16:12.007Z,16.50
2018-07-15T16:18:40.129Z,16.60
2018-07-15T16:21:08.306Z,16.50
2018-07-15T16:23:36.440Z,16.50
2018-07-15T16:29:00.758Z,16.40
2018-07-15T16:31:28.922Z,16.50
2018-07-15T16:33:57.119Z,16.50
2018-07-15T16:36:38.620Z,16.50
2018-07-15T16:39:07.096Z,16.40
2018-07-15T16:41:35.358Z,16.40
2018-07-15T16:44:13.960Z,16.40
2018-07-15T16:46:42.095Z,16.40
2018-07-15T16:49:10.955Z,16.50
2018-07-15T16:51:39.132Z,16.40
2018-07-15T16:54:07.292Z,16.30
2018-07-15T16:56:36.541Z,16.10
2018-07-15T16:59:04.886Z,16.10
2018-07-15T17:01:33.240Z,16.10
2018-07-15T17:04:01.590Z,16.10
2018-07-15T17:06:35.895Z,16.20
2018-07-15T17:09:04.659Z,16.20
2018-07-15T17:11:32.832Z,16.20
2018-07-15T17:14:00.982Z,16.20
2018-07-15T17:16:29.231Z,16.20
2018-07-15T17:18:57.411Z,16.20
2018-07-15T17:21:25.646Z,16.10
2018-07-15T17:23:53.802Z,16.10
2018-07-15T17:26:21.997Z,16.10
2018-07-15T17:28:50.431Z,16.20
2018-07-15T17:31:18.592Z,16.30
2018-07-15T17:33:47.110Z,16.20
2018-07-15T17:36:15.193Z,16.20
2018-07-15T17:38:51.674Z,16.20
2018-07-15T17:41:19.851Z,16.20
2018-07-15T17:43:48.108Z,16.20
2018-07-15T17:46:16.305Z,16.20
2018-07-15T17:51:12.362Z,16.30
2018-07-15T17:53:40.524Z,16.30
2018-07-15T17:56:08.742Z,16.30
2018-07-15T17:58:37.049Z,16.30
2018-07-15T18:01:06.245Z,16.30
2018-07-15T18:03:34.696Z,16.30
2018-07-15T18:06:02.882Z,16.30
2018-07-15T18:10:58.988Z,16.40
2018-07-15T18:13:27.148Z,16.50
2018-07-15T18:15:55.285Z,16.50
2018-07-15T18:18:23.432Z,16.50
2018-07-15T18:20:51.573Z,16.50
2018-07-15T18:23:19.714Z,16.50
2018-07-15T18:25:47.909Z,16.40
2018-07-15T18:28:16.069Z,16.40
2018-07-15T18:30:44.218Z,16.40
2018-07-15T18:33:12.379Z,16.40
2018-07-15T18:35:40.680Z,16.40
2018-07-15T18:38:08.867Z,16.30
2018-07-15T18:40:37.123Z,16.30
2018-07-15T18:43:05.311Z,16.30
2018-07-15T18:45:42.074Z,16.30
2018-07-15T18:48:10.255Z,16.30
2018-07-15T18:50:38.427Z,16.30
2018-07-15T18:53:06.626Z,16.30
2018-07-15T18:55:34.869Z,16.30
2018-07-15T18:58:03.019Z,16.30
2018-07-15T19:00:31.268Z,16.30
2018-07-15T19:02:59.446Z,16.30
2018-07-15T19:05:27.623Z,16.30
2018-07-15T19:07:55.832Z,16.30
2018-07-15T19:10:25.127Z,16.30
2018-07-15T19:12:53.636Z,16.30
2018-07-15T19:15:22.043Z,16.40
2018-07-15T19:17:50.212Z,16.40
2018-07-15T19:20:18.381Z,16.30
2018-07-15T19:22:46.562Z,16.30
2018-07-15T19:25:14.730Z,16.30
2018-07-15T19:27:42.922Z,16.20
2018-07-15T19:32:39.007Z,16.20
2018-07-15T19:35:07.362Z,16.20
2018-07-15T19:37:35.552Z,16.10
2018-07-15T19:40:03.768Z,16.20
2018-07-15T19:42:31.958Z,16.10
2018-07-15T19:45:00.316Z,16.10
2018-07-15T19:47:28.755Z,16.00
2018-07-15T19:49:56.938Z,16.00
2018-07-15T19:52:25.086Z,16.10
2018-07-15T19:54:53.231Z,16.10
2018-07-15T19:57:21.439Z,16.00
2018-07-15T19:59:49.671Z,16.10
2018-07-15T20:02:17.804Z,16.00
2018-07-15T20:04:47.291Z,16.00
2018-07-15T20:10:13.252Z,16.00
2018-07-15T20:12:54.071Z,16.00
2018-07-15T20:17:50.129Z,16.00
2018-07-15T20:20:18.270Z,16.00
2018-07-15T20:22:46.403Z,16.00
2018-07-15T20:25:14.542Z,16.00
2018-07-15T20:27:42.716Z,15.90
2018-07-15T20:30:10.832Z,15.90
2018-07-15T20:32:41.016Z,15.90
2018-07-15T20:35:09.146Z,15.90
2018-07-15T20:37:53.602Z,15.90
2018-07-15T20:40:22.023Z,15.80
2018-07-15T20:42:50.138Z,15.80
2018-07-15T20:45:23.760Z,15.80
2018-07-15T20:47:59.981Z,15.80
2018-07-15T20:50:28.790Z,15.70
2018-07-15T20:52:56.840Z,15.70
2018-07-15T20:55:25.104Z,15.70
2018-07-15T20:57:53.981Z,15.70
2018-07-15T21:00:22.121Z,15.70
2018-07-15T21:02:50.261Z,15.70
2018-07-15T21:05:18.412Z,15.70
2018-07-15T21:07:46.531Z,15.70
2018-07-15T21:10:14.703Z,15.70
2018-07-15T21:12:42.867Z,15.70
2018-07-15T21:15:11.038Z,15.70
2018-07-15T21:17:39.181Z,15.70
2018-07-15T21:20:08.009Z,15.70
2018-07-15T21:22:36.146Z,15.80
2018-07-15T21:25:04.327Z,15.80
2018-07-15T21:27:32.475Z,15.70
2018-07-15T21:30:00.608Z,15.70
2018-07-15T21:32:28.750Z,15.80
2018-07-15T21:34:56.893Z,15.70
2018-07-15T21:37:26.012Z,15.70
2018-07-15T21:39:54.123Z,15.70
2018-07-15T21:42:22.264Z,15.70
2018-07-15T21:44:50.392Z,15.70
2018-07-15T21:47:18.597Z,15.70
2018-07-15T21:49:46.768Z,15.70
2018-07-15T21:52:14.956Z,15.70
2018-07-15T21:54:43.124Z,15.70
2018-07-15T21:57:11.304Z,15.70
2018-07-15T21:59:39.458Z,15.70
2018-07-15T22:02:07.585Z,15.70
2018-07-15T22:04:36.326Z,15.70
2018-07-15T22:07:15.947Z,15.70
2018-07-15T22:09:56.466Z,15.70
2018-07-15T22:12:24.614Z,15.70
2018-07-15T22:14:52.772Z,15.70
2018-07-15T22:17:21.297Z,15.70
2018-07-15T22:19:49.428Z,15.70
2018-07-15T22:22:17.592Z,15.70
2018-07-15T22:24:45.764Z,15.70
2018-07-15T22:27:13.934Z,15.70
2018-07-15T22:29:42.059Z,15.70
2018-07-15T22:32:10.372Z,15.70
2018-07-15T22:34:38.494Z,15.70
2018-07-15T22:37:06.658Z,15.80
2018-07-15T22:39:34.812Z,15.70
2018-07-15T22:42:02.947Z,15.80
2018-07-15T22:44:31.088Z,15.80
2018-07-15T22:46:59.236Z,15.80
2018-07-15T22:49:27.360Z,15.80
2018-07-15T22:51:55.522Z,15.80
2018-07-15T22:54:23.663Z,15.80
2018-07-15T22:56:51.822Z,15.80
2018-07-15T22:59:19.956Z,15.70
2018-07-15T23:01:48.105Z,15.70
2018-07-15T23:04:16.238Z,15.80
2018-07-15T23:06:44.361Z,15.70
2018-07-15T23:09:12.500Z,15.80
2018-07-15T23:11:40.668Z,15.80
2018-07-15T23:14:08.797Z,15.80
2018-07-15T23:16:36.927Z,15.70
2018-07-15T23:19:05.075Z,15.70
2018-07-15T23:21:33.236Z,15.70
2018-07-15T23:24:01.368Z,15.70
2018-07-15T23:28:57.455Z,15.70
2018-07-15T23:31:25.587Z,15.60
2018-07-15T23:33:53.837Z,15.60
2018-07-15T23:36:21.974Z,15.70
2018-07-15T23:38:50.141Z,15.70
2018-07-15T23:41:18.291Z,15.70
2018-07-15T23:43:46.441Z,15.70
2018-07-15T23:46:14.556Z,15.70
2018-07-15T23:48:42.696Z,15.60
2018-07-15T23:51:11.048Z,15.70
2018-07-15T23:53:39.224Z,15.60
2018-07-15T23:56:07.465Z,15.60
2018-07-15T23:58:35.643Z,15.60
